sensor_id;sensor_type;location;lat;lon;timestamp;temperature;humidity
19880;DHT22;10102;50.828;4.416;2023-04-15T00:00:57;12.80;99.90
19880;DHT22;10102;50.828;4.416;2023-04-15T00:03:24;12.90;99.90
19880;DHT22;10102;50.828;4.416;2023-04-15T00:05:49;12.80;99.90
19880;DHT22;10102;50.828;4.416;2023-04-15T00:08:15;12.90;99.90
19880;DHT22;10102;50.828;4.416;2023-04-15T00:10:41;12.80;99.90
19880;DHT22;10102;50.828;4.416;2023-04-15T00:13:08;12.80;99.90
19880;DHT22;10102;50.828;4.416;2023-04-15T00:15:34;12.50;99.90
19880;DHT22;10102;50.828;4.416;2023-04-15T00:18:00;12.60;99.90
19880;DHT22;10102;50.828;4.416;2023-04-15T00:20:26;12.60;99.90
19880;DHT22;10102;50.828;4.416;2023-04-15T00:22:52;12.60;99.90
19880;DHT22;10102;50.828;4.416;2023-04-15T00:25:19;9.80;99.90
19880;DHT22;10102;50.828;4.416;2023-04-15T00:27:44;12.60;99.90
19880;DHT22;10102;50.828;4.416;2023-04-15T00:30:10;12.70;99.90
19880;DHT22;10102;50.828;4.416;2023-04-15T00:32:36;12.70;99.90
19880;DHT22;10102;50.828;4.416;2023-04-15T00:35:02;12.80;99.90
19880;DHT22;10102;50.828;4.416;2023-04-15T00:37:28;12.80;99.90
19880;DHT22;10102;50.828;4.416;2023-04-15T00:39:54;12.80;99.90
19880;DHT22;10102;50.828;4.416;2023-04-15T00:42:20;12.90;99.90
19880;DHT22;10102;50.828;4.416;2023-04-15T00:44:46;12.90;99.90
19880;DHT22;10102;50.828;4.416;2023-04-15T00:47:12;12.80;99.90
19880;DHT22;10102;50.828;4.416;2023-04-15T00:49:39;12.80;99.90
19880;DHT22;10102;50.828;4.416;2023-04-15T00:52:04;12.80;99.90
19880;DHT22;10102;50.828;4.416;2023-04-15T00:54:30;12.70;99.90
19880;DHT22;10102;50.828;4.416;2023-04-15T00:56:56;12.80;99.90
19880;DHT22;10102;50.828;4.416;2023-04-15T00:59:22;12.80;99.90
19880;DHT22;10102;50.828;4.416;2023-04-15T01:01:48;12.90;99.90
19880;DHT22;10102;50.828;4.416;2023-04-15T01:04:14;12.90;99.90
19880;DHT22;10102;50.828;4.416;2023-04-15T01:06:40;12.80;99.90
19880;DHT22;10102;50.828;4.416;2023-04-15T01:09:06;12.90;99.90
19880;DHT22;10102;50.828;4.416;2023-04-15T01:11:32;12.90;99.90
19880;DHT22;10102;50.828;4.416;2023-04-15T01:13:58;12.90;99.90
19880;DHT22;10102;50.828;4.416;2023-04-15T01:16:25;13.00;99.90
19880;DHT22;10102;50.828;4.416;2023-04-15T01:21:18;12.80;99.90
19880;DHT22;10102;50.828;4.416;2023-04-15T01:23:46;13.00;99.90
19880;DHT22;10102;50.828;4.416;2023-04-15T01:26:13;13.00;99.90
19880;DHT22;10102;50.828;4.416;2023-04-15T01:28:38;13.00;99.90
19880;DHT22;10102;50.828;4.416;2023-04-15T01:31:09;13.00;99.90
19880;DHT22;10102;50.828;4.416;2023-04-15T01:33:35;13.00;99.90
19880;DHT22;10102;50.828;4.416;2023-04-15T01:36:01;12.80;99.90
19880;DHT22;10102;50.828;4.416;2023-04-15T01:38:28;12.80;99.90
19880;DHT22;10102;50.828;4.416;2023-04-15T01:40:54;12.80;99.90
19880;DHT22;10102;50.828;4.416;2023-04-15T01:43:20;12.90;99.90
19880;DHT22;10102;50.828;4.416;2023-04-15T01:45:45;12.90;99.90
19880;DHT22;10102;50.828;4.416;2023-04-15T01:48:11;13.00;99.90
19880;DHT22;10102;50.828;4.416;2023-04-15T01:50:37;12.80;99.90
19880;DHT22;10102;50.828;4.416;2023-04-15T01:53:03;12.90;99.90
19880;DHT22;10102;50.828;4.416;2023-04-15T01:55:29;12.50;99.90
19880;DHT22;10102;50.828;4.416;2023-04-15T01:57:55;12.90;99.90
19880;DHT22;10102;50.828;4.416;2023-04-15T02:00:21;13.10;99.90
19880;DHT22;10102;50.828;4.416;2023-04-15T02:02:47;12.80;99.90
19880;DHT22;10102;50.828;4.416;2023-04-15T02:05:14;12.70;99.90
19880;DHT22;10102;50.828;4.416;2023-04-15T02:07:41;12.70;99.90
19880;DHT22;10102;50.828;4.416;2023-04-15T02:10:08;12.70;99.90
19880;DHT22;10102;50.828;4.416;2023-04-15T02:12:33;12.70;99.90
19880;DHT22;10102;50.828;4.416;2023-04-15T02:14:59;12.60;99.90
19880;DHT22;10102;50.828;4.416;2023-04-15T02:17:25;12.70;99.90
19880;DHT22;10102;50.828;4.416;2023-04-15T02:22:17;12.50;99.90
19880;DHT22;10102;50.828;4.416;2023-04-15T02:24:43;12.60;99.90
19880;DHT22;10102;50.828;4.416;2023-04-15T02:27:08;12.60;99.90
19880;DHT22;10102;50.828;4.416;2023-04-15T02:29:34;12.50;99.90
19880;DHT22;10102;50.828;4.416;2023-04-15T02:32:00;12.60;99.90
19880;DHT22;10102;50.828;4.416;2023-04-15T02:34:26;12.60;99.90
19880;DHT22;10102;50.828;4.416;2023-04-15T02:36:51;12.50;99.90
19880;DHT22;10102;50.828;4.416;2023-04-15T02:39:21;12.50;99.90
19880;DHT22;10102;50.828;4.416;2023-04-15T02:41:48;12.60;99.90
19880;DHT22;10102;50.828;4.416;2023-04-15T02:44:17;12.60;99.90
19880;DHT22;10102;50.828;4.416;2023-04-15T02:46:46;12.60;99.90
19880;DHT22;10102;50.828;4.416;2023-04-15T02:49:17;13.00;99.90
19880;DHT22;10102;50.828;4.416;2023-04-15T02:51:43;12.70;99.90
19880;DHT22;10102;50.828;4.416;2023-04-15T02:54:12;12.60;99.90
19880;DHT22;10102;50.828;4.416;2023-04-15T02:56:37;12.60;99.90
19880;DHT22;10102;50.828;4.416;2023-04-15T02:59:03;12.60;99.90
19880;DHT22;10102;50.828;4.416;2023-04-15T03:01:29;12.50;99.90
19880;DHT22;10102;50.828;4.416;2023-04-15T03:03:54;12.60;99.90
19880;DHT22;10102;50.828;4.416;2023-04-15T03:08:46;12.60;99.90
19880;DHT22;10102;50.828;4.416;2023-04-15T03:11:14;12.60;99.90
19880;DHT22;10102;50.828;4.416;2023-04-15T03:13:40;12.60;99.90
19880;DHT22;10102;50.828;4.416;2023-04-15T03:16:08;12.40;99.90
19880;DHT22;10102;50.828;4.416;2023-04-15T03:18:33;12.50;99.90
19880;DHT22;10102;50.828;4.416;2023-04-15T03:20:59;12.50;99.90
19880;DHT22;10102;50.828;4.416;2023-04-15T03:23:25;12.50;99.90
19880;DHT22;10102;50.828;4.416;2023-04-15T03:25:50;12.50;99.90
19880;DHT22;10102;50.828;4.416;2023-04-15T03:28:16;12.50;99.90
19880;DHT22;10102;50.828;4.416;2023-04-15T03:30:42;12.60;99.90
19880;DHT22;10102;50.828;4.416;2023-04-15T03:33:07;12.40;99.90
19880;DHT22;10102;50.828;4.416;2023-04-15T03:35:33;12.60;99.90
19880;DHT22;10102;50.828;4.416;2023-04-15T03:37:59;12.50;99.90
19880;DHT22;10102;50.828;4.416;2023-04-15T03:40:25;12.30;99.90
19880;DHT22;10102;50.828;4.416;2023-04-15T03:42:52;12.30;99.90
19880;DHT22;10102;50.828;4.416;2023-04-15T03:45:18;12.30;99.90
19880;DHT22;10102;50.828;4.416;2023-04-15T03:47:43;12.20;99.90
19880;DHT22;10102;50.828;4.416;2023-04-15T03:50:09;12.20;99.90
19880;DHT22;10102;50.828;4.416;2023-04-15T03:52:35;12.30;99.90
19880;DHT22;10102;50.828;4.416;2023-04-15T03:55:01;12.20;99.90
19880;DHT22;10102;50.828;4.416;2023-04-15T03:57:26;12.20;99.90
19880;DHT22;10102;50.828;4.416;2023-04-15T03:59:52;12.20;99.90
19880;DHT22;10102;50.828;4.416;2023-04-15T04:02:18;12.20;99.90
19880;DHT22;10102;50.828;4.416;2023-04-15T04:04:43;12.10;99.90
19880;DHT22;10102;50.828;4.416;2023-04-15T04:07:14;12.10;99.90
19880;DHT22;10102;50.828;4.416;2023-04-15T04:09:40;11.90;99.90
19880;DHT22;10102;50.828;4.416;2023-04-15T04:12:06;11.80;99.90
19880;DHT22;10102;50.828;4.416;2023-04-15T04:14:32;11.80;99.90
19880;DHT22;10102;50.828;4.416;2023-04-15T04:16:58;12.00;99.90
19880;DHT22;10102;50.828;4.416;2023-04-15T04:19:23;12.00;99.90
19880;DHT22;10102;50.828;4.416;2023-04-15T04:21:49;12.00;99.90
19880;DHT22;10102;50.828;4.416;2023-04-15T04:24:15;12.20;99.90
19880;DHT22;10102;50.828;4.416;2023-04-15T04:26:40;12.00;99.90
19880;DHT22;10102;50.828;4.416;2023-04-15T04:29:06;11.90;99.90
19880;DHT22;10102;50.828;4.416;2023-04-15T04:31:32;11.80;99.90
19880;DHT22;10102;50.828;4.416;2023-04-15T04:33:59;11.90;99.90
19880;DHT22;10102;50.828;4.416;2023-04-15T04:36:25;12.00;99.90
19880;DHT22;10102;50.828;4.416;2023-04-15T04:38:51;11.60;99.90
19880;DHT22;10102;50.828;4.416;2023-04-15T04:41:17;11.90;99.90
19880;DHT22;10102;50.828;4.416;2023-04-15T04:43:42;11.90;99.90
19880;DHT22;10102;50.828;4.416;2023-04-15T04:46:08;11.90;99.90
19880;DHT22;10102;50.828;4.416;2023-04-15T04:48:34;11.90;99.90
19880;DHT22;10102;50.828;4.416;2023-04-15T04:51:01;12.00;99.90
19880;DHT22;10102;50.828;4.416;2023-04-15T04:53:26;12.10;99.90
19880;DHT22;10102;50.828;4.416;2023-04-15T04:55:52;11.80;99.90
19880;DHT22;10102;50.828;4.416;2023-04-15T04:58:18;11.80;99.90
19880;DHT22;10102;50.828;4.416;2023-04-15T05:00:44;11.90;99.90
19880;DHT22;10102;50.828;4.416;2023-04-15T05:05:35;11.90;99.90
19880;DHT22;10102;50.828;4.416;2023-04-15T05:08:04;11.70;99.90
19880;DHT22;10102;50.828;4.416;2023-04-15T05:10:30;11.70;99.90
19880;DHT22;10102;50.828;4.416;2023-04-15T05:12:56;11.80;99.90
19880;DHT22;10102;50.828;4.416;2023-04-15T05:15:22;11.80;99.90
19880;DHT22;10102;50.828;4.416;2023-04-15T05:17:47;11.90;99.90
19880;DHT22;10102;50.828;4.416;2023-04-15T05:20:13;11.80;99.90
19880;DHT22;10102;50.828;4.416;2023-04-15T05:22:39;11.90;99.90
19880;DHT22;10102;50.828;4.416;2023-04-15T05:25:04;11.90;99.90
19880;DHT22;10102;50.828;4.416;2023-04-15T05:27:30;12.00;99.90
19880;DHT22;10102;50.828;4.416;2023-04-15T05:29:56;12.10;99.90
19880;DHT22;10102;50.828;4.416;2023-04-15T05:32:21;12.00;99.90
19880;DHT22;10102;50.828;4.416;2023-04-15T05:37:13;12.00;99.90
19880;DHT22;10102;50.828;4.416;2023-04-15T05:39:39;11.90;99.90
19880;DHT22;10102;50.828;4.416;2023-04-15T05:42:04;12.00;99.90
19880;DHT22;10102;50.828;4.416;2023-04-15T05:44:30;12.10;99.90
19880;DHT22;10102;50.828;4.416;2023-04-15T05:46:56;12.00;99.90
19880;DHT22;10102;50.828;4.416;2023-04-15T05:51:48;12.00;99.90
19880;DHT22;10102;50.828;4.416;2023-04-15T05:54:14;12.10;99.90
19880;DHT22;10102;50.828;4.416;2023-04-15T05:56:40;12.10;99.90
19880;DHT22;10102;50.828;4.416;2023-04-15T05:59:06;12.10;99.90
19880;DHT22;10102;50.828;4.416;2023-04-15T06:01:32;12.00;99.90
19880;DHT22;10102;50.828;4.416;2023-04-15T06:03:58;11.70;99.90
19880;DHT22;10102;50.828;4.416;2023-04-15T06:06:24;12.20;99.90
19880;DHT22;10102;50.828;4.416;2023-04-15T06:08:52;11.90;99.90
19880;DHT22;10102;50.828;4.416;2023-04-15T06:11:19;12.00;99.90
19880;DHT22;10102;50.828;4.416;2023-04-15T06:13:45;12.00;99.90
19880;DHT22;10102;50.828;4.416;2023-04-15T06:16:11;12.10;99.90
19880;DHT22;10102;50.828;4.416;2023-04-15T06:18:38;12.10;99.90
19880;DHT22;10102;50.828;4.416;2023-04-15T06:21:03;11.80;99.90
19880;DHT22;10102;50.828;4.416;2023-04-15T06:23:30;12.10;99.90
19880;DHT22;10102;50.828;4.416;2023-04-15T06:26:00;12.20;99.90
19880;DHT22;10102;50.828;4.416;2023-04-15T06:28:26;12.30;99.90
19880;DHT22;10102;50.828;4.416;2023-04-15T06:30:53;12.30;99.90
19880;DHT22;10102;50.828;4.416;2023-04-15T06:33:19;12.50;99.90
19880;DHT22;10102;50.828;4.416;2023-04-15T06:38:12;12.60;99.90
19880;DHT22;10102;50.828;4.416;2023-04-15T06:40:38;12.70;99.90
19880;DHT22;10102;50.828;4.416;2023-04-15T06:43:04;12.80;99.90
19880;DHT22;10102;50.828;4.416;2023-04-15T06:45:30;12.80;99.90
19880;DHT22;10102;50.828;4.416;2023-04-15T06:47:56;13.70;99.90
19880;DHT22;10102;50.828;4.416;2023-04-15T06:50:22;13.00;99.90
19880;DHT22;10102;50.828;4.416;2023-04-15T06:52:47;13.10;99.90
19880;DHT22;10102;50.828;4.416;2023-04-15T06:55:13;13.00;99.90
19880;DHT22;10102;50.828;4.416;2023-04-15T06:57:39;13.00;99.90
19880;DHT22;10102;50.828;4.416;2023-04-15T07:00:05;13.10;99.90
19880;DHT22;10102;50.828;4.416;2023-04-15T07:02:32;13.10;99.90
19880;DHT22;10102;50.828;4.416;2023-04-15T07:04:57;13.10;99.90
19880;DHT22;10102;50.828;4.416;2023-04-15T07:07:23;12.90;99.90
19880;DHT22;10102;50.828;4.416;2023-04-15T07:09:50;13.40;99.90
19880;DHT22;10102;50.828;4.416;2023-04-15T07:12:18;13.50;99.90
19880;DHT22;10102;50.828;4.416;2023-04-15T07:14:43;13.50;99.90
19880;DHT22;10102;50.828;4.416;2023-04-15T07:17:09;13.80;99.90
19880;DHT22;10102;50.828;4.416;2023-04-15T07:19:36;14.00;99.90
19880;DHT22;10102;50.828;4.416;2023-04-15T07:22:02;14.00;99.90
19880;DHT22;10102;50.828;4.416;2023-04-15T07:24:28;13.90;99.90
19880;DHT22;10102;50.828;4.416;2023-04-15T07:26:54;13.90;99.90
19880;DHT22;10102;50.828;4.416;2023-04-15T07:29:22;14.00;99.90
19880;DHT22;10102;50.828;4.416;2023-04-15T07:31:47;14.00;99.90
19880;DHT22;10102;50.828;4.416;2023-04-15T07:34:13;14.10;99.90
19880;DHT22;10102;50.828;4.416;2023-04-15T07:36:39;14.00;99.90
19880;DHT22;10102;50.828;4.416;2023-04-15T07:39:05;13.70;99.90
19880;DHT22;10102;50.828;4.416;2023-04-15T07:41:30;13.70;99.90
19880;DHT22;10102;50.828;4.416;2023-04-15T07:43:56;13.80;99.90
19880;DHT22;10102;50.828;4.416;2023-04-15T07:46:22;13.80;99.90
19880;DHT22;10102;50.828;4.416;2023-04-15T07:48:49;13.60;99.90
19880;DHT22;10102;50.828;4.416;2023-04-15T07:51:16;13.60;99.90
19880;DHT22;10102;50.828;4.416;2023-04-15T07:53:42;13.70;99.90
19880;DHT22;10102;50.828;4.416;2023-04-15T07:56:09;13.90;99.90
19880;DHT22;10102;50.828;4.416;2023-04-15T08:01:03;13.40;99.90
19880;DHT22;10102;50.828;4.416;2023-04-15T08:03:28;13.30;99.90
19880;DHT22;10102;50.828;4.416;2023-04-15T08:05:54;13.30;99.90
19880;DHT22;10102;50.828;4.416;2023-04-15T08:08:20;13.20;99.90
19880;DHT22;10102;50.828;4.416;2023-04-15T08:10:45;13.20;99.90
19880;DHT22;10102;50.828;4.416;2023-04-15T08:13:11;13.10;99.90
19880;DHT22;10102;50.828;4.416;2023-04-15T08:15:37;13.10;99.90
19880;DHT22;10102;50.828;4.416;2023-04-15T08:18:03;13.10;99.90
19880;DHT22;10102;50.828;4.416;2023-04-15T08:20:28;13.10;99.90
19880;DHT22;10102;50.828;4.416;2023-04-15T08:22:54;13.20;99.90
19880;DHT22;10102;50.828;4.416;2023-04-15T08:25:20;13.50;99.90
19880;DHT22;10102;50.828;4.416;2023-04-15T08:27:46;13.70;99.90
19880;DHT22;10102;50.828;4.416;2023-04-15T08:30:12;14.00;99.90
19880;DHT22;10102;50.828;4.416;2023-04-15T08:32:38;14.30;99.90
19880;DHT22;10102;50.828;4.416;2023-04-15T08:35:04;14.60;99.90
19880;DHT22;10102;50.828;4.416;2023-04-15T08:37:30;14.70;99.90
19880;DHT22;10102;50.828;4.416;2023-04-15T08:39:56;14.90;99.90
19880;DHT22;10102;50.828;4.416;2023-04-15T08:42:31;15.00;99.90
19880;DHT22;10102;50.828;4.416;2023-04-15T08:44:59;15.70;99.90
19880;DHT22;10102;50.828;4.416;2023-04-15T08:47:29;15.70;99.90
19880;DHT22;10102;50.828;4.416;2023-04-15T08:49:57;15.80;99.90
19880;DHT22;10102;50.828;4.416;2023-04-15T08:52:26;15.90;99.90
19880;DHT22;10102;50.828;4.416;2023-04-15T08:54:56;16.80;99.90
19880;DHT22;10102;50.828;4.416;2023-04-15T08:57:25;16.60;99.90
19880;DHT22;10102;50.828;4.416;2023-04-15T08:59:52;16.80;99.90
19880;DHT22;10102;50.828;4.416;2023-04-15T09:02:18;16.90;99.90
19880;DHT22;10102;50.828;4.416;2023-04-15T09:04:44;17.20;99.90
19880;DHT22;10102;50.828;4.416;2023-04-15T09:07:10;17.30;99.90
19880;DHT22;10102;50.828;4.416;2023-04-15T09:09:35;17.60;99.90
19880;DHT22;10102;50.828;4.416;2023-04-15T09:12:04;17.90;99.90
19880;DHT22;10102;50.828;4.416;2023-04-15T09:14:30;17.20;99.90
19880;DHT22;10102;50.828;4.416;2023-04-15T09:17:01;17.20;99.90
19880;DHT22;10102;50.828;4.416;2023-04-15T09:19:27;17.40;99.90
19880;DHT22;10102;50.828;4.416;2023-04-15T09:21:55;17.00;99.90
19880;DHT22;10102;50.828;4.416;2023-04-15T09:24:24;16.90;99.90
19880;DHT22;10102;50.828;4.416;2023-04-15T09:26:52;17.00;99.90
19880;DHT22;10102;50.828;4.416;2023-04-15T09:29:19;17.00;99.90
19880;DHT22;10102;50.828;4.416;2023-04-15T09:31:45;17.00;99.90
19880;DHT22;10102;50.828;4.416;2023-04-15T09:34:11;16.90;99.90
19880;DHT22;10102;50.828;4.416;2023-04-15T09:36:55;16.80;99.90
19880;DHT22;10102;50.828;4.416;2023-04-15T09:39:21;16.90;99.90
19880;DHT22;10102;50.828;4.416;2023-04-15T09:42:06;17.00;99.90
19880;DHT22;10102;50.828;4.416;2023-04-15T09:44:32;17.00;99.90
19880;DHT22;10102;50.828;4.416;2023-04-15T09:46:57;17.10;99.90
19880;DHT22;10102;50.828;4.416;2023-04-15T09:49:23;17.40;99.90
19880;DHT22;10102;50.828;4.416;2023-04-15T09:51:49;17.20;99.90
19880;DHT22;10102;50.828;4.416;2023-04-15T09:54:18;17.00;99.90
19880;DHT22;10102;50.828;4.416;2023-04-15T09:56:45;17.10;99.90
19880;DHT22;10102;50.828;4.416;2023-04-15T09:59:11;17.20;99.90
19880;DHT22;10102;50.828;4.416;2023-04-15T10:01:37;17.30;99.90
19880;DHT22;10102;50.828;4.416;2023-04-15T10:04:04;17.40;99.90
19880;DHT22;10102;50.828;4.416;2023-04-15T10:06:30;17.50;99.90
19880;DHT22;10102;50.828;4.416;2023-04-15T10:08:57;17.50;99.90
19880;DHT22;10102;50.828;4.416;2023-04-15T10:11:23;17.40;99.90
19880;DHT22;10102;50.828;4.416;2023-04-15T10:13:50;17.50;99.90
19880;DHT22;10102;50.828;4.416;2023-04-15T10:16:19;17.60;99.90
19880;DHT22;10102;50.828;4.416;2023-04-15T10:18:52;17.80;99.90
19880;DHT22;10102;50.828;4.416;2023-04-15T10:21:20;17.80;99.90
19880;DHT22;10102;50.828;4.416;2023-04-15T10:23:47;17.80;99.90
19880;DHT22;10102;50.828;4.416;2023-04-15T10:26:14;18.00;99.90
19880;DHT22;10102;50.828;4.416;2023-04-15T10:28:44;18.10;99.90
19880;DHT22;10102;50.828;4.416;2023-04-15T10:31:12;18.00;99.90
19880;DHT22;10102;50.828;4.416;2023-04-15T10:33:41;18.10;99.90
19880;DHT22;10102;50.828;4.416;2023-04-15T10:36:07;18.20;99.90
19880;DHT22;10102;50.828;4.416;2023-04-15T10:38:35;18.10;99.90
19880;DHT22;10102;50.828;4.416;2023-04-15T10:41:31;18.70;99.90
19880;DHT22;10102;50.828;4.416;2023-04-15T10:46:37;18.70;99.90
19880;DHT22;10102;50.828;4.416;2023-04-15T10:51:32;18.90;99.90
19880;DHT22;10102;50.828;4.416;2023-04-15T10:53:59;19.30;99.90
19880;DHT22;10102;50.828;4.416;2023-04-15T10:56:27;19.00;99.90
19880;DHT22;10102;50.828;4.416;2023-04-15T10:58:52;19.50;99.90
19880;DHT22;10102;50.828;4.416;2023-04-15T11:01:19;19.60;99.90
19880;DHT22;10102;50.828;4.416;2023-04-15T11:03:47;20.90;99.90
19880;DHT22;10102;50.828;4.416;2023-04-15T11:06:13;22.60;99.90
19880;DHT22;10102;50.828;4.416;2023-04-15T11:08:56;22.10;99.90
19880;DHT22;10102;50.828;4.416;2023-04-15T11:14:14;26.00;95.40
19880;DHT22;10102;50.828;4.416;2023-04-15T11:16:43;27.50;89.70
19880;DHT22;10102;50.828;4.416;2023-04-15T11:19:12;29.00;71.20
19880;DHT22;10102;50.828;4.416;2023-04-15T11:21:38;29.50;64.40
19880;DHT22;10102;50.828;4.416;2023-04-15T11:24:04;30.60;65.70
19880;DHT22;10102;50.828;4.416;2023-04-15T11:26:29;32.30;62.50
19880;DHT22;10102;50.828;4.416;2023-04-15T11:28:55;33.90;57.50
19880;DHT22;10102;50.828;4.416;2023-04-15T11:31:21;35.40;55.70
19880;DHT22;10102;50.828;4.416;2023-04-15T11:33:55;35.10;52.20
19880;DHT22;10102;50.828;4.416;2023-04-15T11:36:26;35.20;52.50
19880;DHT22;10102;50.828;4.416;2023-04-15T11:38:52;35.60;51.20
19880;DHT22;10102;50.828;4.416;2023-04-15T11:41:22;36.90;50.40
19880;DHT22;10102;50.828;4.416;2023-04-15T11:43:49;37.70;49.60
19880;DHT22;10102;50.828;4.416;2023-04-15T11:46:15;37.00;47.20
19880;DHT22;10102;50.828;4.416;2023-04-15T11:48:44;38.10;46.80
19880;DHT22;10102;50.828;4.416;2023-04-15T11:51:11;38.30;46.50
19880;DHT22;10102;50.828;4.416;2023-04-15T11:56:07;36.80;46.10
19880;DHT22;10102;50.828;4.416;2023-04-15T11:58:34;36.10;45.50
19880;DHT22;10102;50.828;4.416;2023-04-15T12:01:03;36.30;44.50
19880;DHT22;10102;50.828;4.416;2023-04-15T12:06:17;37.10;43.60
19880;DHT22;10102;50.828;4.416;2023-04-15T12:14:25;40.10;42.20
19880;DHT22;10102;50.828;4.416;2023-04-15T12:16:56;40.30;41.90
19880;DHT22;10102;50.828;4.416;2023-04-15T12:19:28;39.80;42.20
19880;DHT22;10102;50.828;4.416;2023-04-15T12:22:03;40.50;41.80
19880;DHT22;10102;50.828;4.416;2023-04-15T12:24:34;40.80;41.80
19880;DHT22;10102;50.828;4.416;2023-04-15T12:27:04;41.50;41.90
19880;DHT22;10102;50.828;4.416;2023-04-15T12:29:30;40.40;39.70
19880;DHT22;10102;50.828;4.416;2023-04-15T12:32:03;39.10;40.70
19880;DHT22;10102;50.828;4.416;2023-04-15T12:34:31;40.30;40.50
19880;DHT22;10102;50.828;4.416;2023-04-15T12:36:58;41.40;39.90
19880;DHT22;10102;50.828;4.416;2023-04-15T12:39:25;42.00;38.90
19880;DHT22;10102;50.828;4.416;2023-04-15T12:41:52;42.70;38.00
19880;DHT22;10102;50.828;4.416;2023-04-15T12:44:17;42.40;37.40
19880;DHT22;10102;50.828;4.416;2023-04-15T12:46:44;41.80;37.20
19880;DHT22;10102;50.828;4.416;2023-04-15T12:49:10;40.90;38.00
19880;DHT22;10102;50.828;4.416;2023-04-15T12:51:36;41.40;38.30
19880;DHT22;10102;50.828;4.416;2023-04-15T12:54:01;41.30;37.20
19880;DHT22;10102;50.828;4.416;2023-04-15T12:56:28;39.70;37.70
19880;DHT22;10102;50.828;4.416;2023-04-15T12:58:54;40.10;38.00
19880;DHT22;10102;50.828;4.416;2023-04-15T13:01:19;41.00;38.00
19880;DHT22;10102;50.828;4.416;2023-04-15T13:03:45;39.30;38.20
19880;DHT22;10102;50.828;4.416;2023-04-15T13:06:12;38.70;38.50
19880;DHT22;10102;50.828;4.416;2023-04-15T13:08:38;38.20;38.60
19880;DHT22;10102;50.828;4.416;2023-04-15T13:11:03;38.60;39.20
19880;DHT22;10102;50.828;4.416;2023-04-15T13:13:30;40.60;39.20
19880;DHT22;10102;50.828;4.416;2023-04-15T13:15:56;42.60;38.30
19880;DHT22;10102;50.828;4.416;2023-04-15T13:18:22;42.70;36.30
19880;DHT22;10102;50.828;4.416;2023-04-15T13:20:49;40.10;37.70
19880;DHT22;10102;50.828;4.416;2023-04-15T13:23:15;39.70;37.80
19880;DHT22;10102;50.828;4.416;2023-04-15T13:25:41;39.50;37.70
19880;DHT22;10102;50.828;4.416;2023-04-15T13:28:09;39.80;38.10
19880;DHT22;10102;50.828;4.416;2023-04-15T13:30:37;39.90;37.60
19880;DHT22;10102;50.828;4.416;2023-04-15T13:33:03;41.30;37.60
19880;DHT22;10102;50.828;4.416;2023-04-15T13:35:28;41.30;38.10
19880;DHT22;10102;50.828;4.416;2023-04-15T13:37:54;41.60;37.40
19880;DHT22;10102;50.828;4.416;2023-04-15T13:40:20;41.90;38.20
19880;DHT22;10102;50.828;4.416;2023-04-15T13:42:46;42.40;37.00
19880;DHT22;10102;50.828;4.416;2023-04-15T13:45:12;42.10;37.50
19880;DHT22;10102;50.828;4.416;2023-04-15T13:47:39;41.10;37.50
19880;DHT22;10102;50.828;4.416;2023-04-15T13:50:05;41.80;37.80
19880;DHT22;10102;50.828;4.416;2023-04-15T13:52:31;40.90;38.10
19880;DHT22;10102;50.828;4.416;2023-04-15T13:54:57;40.80;44.90
19880;DHT22;10102;50.828;4.416;2023-04-15T13:57:22;40.70;37.20
19880;DHT22;10102;50.828;4.416;2023-04-15T13:59:48;41.10;37.50
19880;DHT22;10102;50.828;4.416;2023-04-15T14:02:14;40.00;38.30
19880;DHT22;10102;50.828;4.416;2023-04-15T14:04:39;38.00;38.10
19880;DHT22;10102;50.828;4.416;2023-04-15T14:07:05;37.20;39.80
19880;DHT22;10102;50.828;4.416;2023-04-15T14:09:31;38.60;39.90
19880;DHT22;10102;50.828;4.416;2023-04-15T14:11:56;39.10;38.90
19880;DHT22;10102;50.828;4.416;2023-04-15T14:14:24;39.80;38.60
19880;DHT22;10102;50.828;4.416;2023-04-15T14:16:50;39.90;38.80
19880;DHT22;10102;50.828;4.416;2023-04-15T14:19:15;41.10;38.10
19880;DHT22;10102;50.828;4.416;2023-04-15T14:21:41;41.00;38.00
19880;DHT22;10102;50.828;4.416;2023-04-15T14:24:07;41.40;38.20
19880;DHT22;10102;50.828;4.416;2023-04-15T14:26:32;40.00;38.80
19880;DHT22;10102;50.828;4.416;2023-04-15T14:28:58;37.50;40.80
19880;DHT22;10102;50.828;4.416;2023-04-15T14:31:25;35.30;42.80
19880;DHT22;10102;50.828;4.416;2023-04-15T14:33:50;35.10;43.70
19880;DHT22;10102;50.828;4.416;2023-04-15T14:36:16;35.70;41.80
19880;DHT22;10102;50.828;4.416;2023-04-15T14:38:42;37.20;40.90
19880;DHT22;10102;50.828;4.416;2023-04-15T14:41:07;37.10;40.80
19880;DHT22;10102;50.828;4.416;2023-04-15T14:43:34;37.40;40.20
19880;DHT22;10102;50.828;4.416;2023-04-15T14:46:00;37.90;40.20
19880;DHT22;10102;50.828;4.416;2023-04-15T14:48:26;38.00;39.70
19880;DHT22;10102;50.828;4.416;2023-04-15T14:50:52;38.40;39.50
19880;DHT22;10102;50.828;4.416;2023-04-15T14:53:18;38.70;39.10
19880;DHT22;10102;50.828;4.416;2023-04-15T14:55:44;38.30;39.60
19880;DHT22;10102;50.828;4.416;2023-04-15T14:58:10;37.70;40.40
19880;DHT22;10102;50.828;4.416;2023-04-15T15:00:37;36.90;40.70
19880;DHT22;10102;50.828;4.416;2023-04-15T15:03:07;35.80;42.30
19880;DHT22;10102;50.828;4.416;2023-04-15T15:05:41;34.20;44.00
19880;DHT22;10102;50.828;4.416;2023-04-15T15:08:08;33.00;45.30
19880;DHT22;10102;50.828;4.416;2023-04-15T15:10:37;32.60;46.30
19880;DHT22;10102;50.828;4.416;2023-04-15T15:13:04;34.50;45.30
19880;DHT22;10102;50.828;4.416;2023-04-15T15:15:31;36.30;43.40
19880;DHT22;10102;50.828;4.416;2023-04-15T15:17:57;35.30;43.00
19880;DHT22;10102;50.828;4.416;2023-04-15T15:20:23;33.20;46.10
19880;DHT22;10102;50.828;4.416;2023-04-15T15:22:49;31.70;47.10
19880;DHT22;10102;50.828;4.416;2023-04-15T15:25:15;30.50;48.20
19880;DHT22;10102;50.828;4.416;2023-04-15T15:27:41;29.20;50.50
19880;DHT22;10102;50.828;4.416;2023-04-15T15:30:07;28.00;52.60
19880;DHT22;10102;50.828;4.416;2023-04-15T15:32:32;26.70;54.80
19880;DHT22;10102;50.828;4.416;2023-04-15T15:34:58;25.70;70.80
19880;DHT22;10102;50.828;4.416;2023-04-15T15:37:24;24.70;73.90
19880;DHT22;10102;50.828;4.416;2023-04-15T15:39:51;23.70;76.30
19880;DHT22;10102;50.828;4.416;2023-04-15T15:42:18;23.20;78.40
19880;DHT22;10102;50.828;4.416;2023-04-15T15:44:44;22.60;80.80
19880;DHT22;10102;50.828;4.416;2023-04-15T15:47:10;21.80;81.70
19880;DHT22;10102;50.828;4.416;2023-04-15T15:49:35;21.60;83.50
19880;DHT22;10102;50.828;4.416;2023-04-15T15:52:01;20.90;89.10
19880;DHT22;10102;50.828;4.416;2023-04-15T15:54:27;20.40;91.80
19880;DHT22;10102;50.828;4.416;2023-04-15T15:56:53;21.00;91.80
19880;DHT22;10102;50.828;4.416;2023-04-15T15:59:19;24.00;87.40
19880;DHT22;10102;50.828;4.416;2023-04-15T16:01:45;25.60;77.50
19880;DHT22;10102;50.828;4.416;2023-04-15T16:04:10;26.90;81.10